Time;durP1;ratioP1;P1;durP2;ratioP2;P2;SDS_P1;SDS_P2;PMS_P1;PMS_P2;Temp;Humidity;BMP_temperature;BMP_pressure;BME280_temperature;BME280_humidity;BME280_pressure;Samples;Min_cycle;Max_cycle;Signal;HPM_P1;HPM_P2
2023/01/05 00:01:03;;;;;;;1.90;1.13;;;12.70;72.20;;;;;;5052972;28;20018;-65
2023/01/05 00:03:29;;;;;;;1.67;1.10;;;12.70;72.20;;;;;;5042938;28;20085;-65
2023/01/05 00:06:25;;;;;;;1.08;1.00;;;12.70;73.00;;;;;;5044695;28;20077;-65
2023/01/05 00:08:50;;;;;;;1.83;0.80;;;12.60;72.40;;;;;;5051758;28;20133;-65
2023/01/05 00:22:41;;;;;;;1.27;1.17;;;12.50;72.60;;;;;;5041335;28;20064;-66
2023/01/05 00:25:10;;;;;;;1.15;0.90;;;12.50;72.70;;;;;;5047543;28;20044;-65
2023/01/05 00:27:36;;;;;;;1.13;1.02;;;12.40;72.70;;;;;;5046232;28;20503;-64
2023/01/05 00:30:03;;;;;;;0.90;0.90;;;12.40;72.80;;;;;;5048005;28;20105;-65
2023/01/05 00:32:29;;;;;;;2.05;1.33;;;12.40;72.90;;;;;;5048254;28;20052;-65
2023/01/05 00:34:58;;;;;;;1.05;0.93;;;12.40;73.10;;;;;;5050231;28;20025;-65
2023/01/05 00:37:26;;;;;;;4.35;0.88;;;12.40;73.20;;;;;;5049424;28;20037;-65
2023/01/05 00:39:52;;;;;;;2.88;1.10;;;12.30;73.20;;;;;;5049135;28;20017;-65
2023/01/05 00:42:18;;;;;;;1.15;1.02;;;12.30;73.40;;;;;;5049320;28;20020;-65
2023/01/05 00:44:44;;;;;;;1.20;1.10;;;12.30;73.60;;;;;;5050976;28;20089;-64
2023/01/05 00:47:11;;;;;;;1.30;1.08;;;12.30;73.70;;;;;;5046995;28;20029;-64
2023/01/05 00:49:36;;;;;;;1.10;1.00;;;12.30;73.80;;;;;;5045782;28;20049;-64
2023/01/05 00:52:02;;;;;;;1.23;1.00;;;12.20;73.70;;;;;;5062107;28;20052;-64
2023/01/05 00:54:28;;;;;;;1.30;1.20;;;12.20;73.90;;;;;;5045602;28;20053;-64
2023/01/05 00:56:53;;;;;;;1.35;1.25;;;12.20;73.90;;;;;;5053293;28;20048;-64
2023/01/05 00:59:19;;;;;;;1.13;1.08;;;12.10;74.00;;;;;;5039818;28;20052;-65
2023/01/05 01:01:47;;;;;;;1.27;1.17;;;12.10;74.30;;;;;;5045807;28;20021;-64
2023/01/05 01:04:12;;;;;;;1.10;1.00;;;12.10;74.40;;;;;;5053477;28;20037;-64
2023/01/05 01:06:38;;;;;;;1.00;1.00;;;12.00;74.30;;;;;;5045954;28;20140;-64
2023/01/05 01:09:04;;;;;;;1.20;1.02;;;12.00;74.30;;;;;;5058458;28;20032;-64
2023/01/05 01:11:30;;;;;;;0.90;0.90;;;12.00;74.30;;;;;;5053070;28;20051;-64
2023/01/05 01:13:55;;;;;;;0.90;0.90;;;12.00;74.30;;;;;;5047096;28;20021;-64
2023/01/05 01:16:22;;;;;;;1.40;1.10;;;12.00;74.50;;;;;;5043390;28;20406;-65
2023/01/05 01:18:48;;;;;;;0.90;0.90;;;12.00;74.60;;;;;;5044427;28;20021;-64
2023/01/05 01:21:14;;;;;;;1.10;1.00;;;12.00;74.70;;;;;;5046226;28;20063;-64
2023/01/05 01:23:39;;;;;;;1.50;1.40;;;12.00;74.70;;;;;;5051729;28;20063;-64
2023/01/05 01:26:07;;;;;;;0.88;0.88;;;12.00;74.80;;;;;;5052632;28;20017;-64
2023/01/05 01:28:33;;;;;;;1.98;0.90;;;12.00;74.90;;;;;;5053426;28;20063;-63
2023/01/05 01:30:59;;;;;;;0.85;0.85;;;12.00;74.90;;;;;;5047252;28;20058;-63
2023/01/05 01:33:26;;;;;;;1.20;1.10;;;12.00;75.00;;;;;;5051027;28;20739;-63
2023/01/05 01:35:51;;;;;;;0.90;0.90;;;12.00;75.00;;;;;;5046186;28;20033;-63
2023/01/05 01:38:17;;;;;;;1.13;1.10;;;12.00;75.00;;;;;;5049415;28;20025;-64
2023/01/05 01:40:45;;;;;;;1.00;1.00;;;12.00;75.00;;;;;;5050046;28;20040;-63
2023/01/05 01:43:15;;;;;;;1.60;1.00;;;12.00;75.10;;;;;;5053726;28;20018;-64
2023/01/05 01:45:41;;;;;;;0.90;0.90;;;12.00;75.20;;;;;;5046073;28;20079;-64
2023/01/05 01:48:10;;;;;;;0.90;0.90;;;12.00;75.20;;;;;;5061830;28;20029;-63
2023/01/05 01:50:40;;;;;;;0.90;0.82;;;12.00;75.90;;;;;;5054990;28;20041;-63
2023/01/05 01:53:11;;;;;;;0.90;0.90;;;12.00;76.10;;;;;;5039816;28;20075;-64
2023/01/05 01:55:38;;;;;;;1.08;0.98;;;12.00;75.20;;;;;;5047302;28;20586;-63
2023/01/05 01:58:10;;;;;;;0.80;0.80;;;12.00;75.40;;;;;;5044377;28;20159;-64
2023/01/05 02:00:38;;;;;;;0.80;0.80;;;12.00;75.50;;;;;;5046415;28;20034;-64
2023/01/05 02:03:04;;;;;;;0.93;0.90;;;12.00;75.40;;;;;;5045266;28;20029;-64
2023/01/05 02:05:32;;;;;;;1.10;1.02;;;12.00;75.70;;;;;;5056209;28;20026;-64
2023/01/05 02:07:59;;;;;;;0.93;0.90;;;12.00;75.70;;;;;;5037553;28;20081;-63
2023/01/05 02:11:08;;;;;;;1.88;0.95;;;12.00;75.70;;;;;;5051434;28;20112;-64
2023/01/05 02:13:52;;;;;;;1.90;1.00;;;12.00;76.00;;;;;;5025885;28;20042;-63
2023/01/05 02:16:45;;;;;;;1.10;1.10;;;12.00;75.90;;;;;;5022940;28;20081;-64
2023/01/05 02:19:31;;;;;;;1.00;1.00;;;12.00;76.20;;;;;;5016017;28;20087;-62
2023/01/05 02:22:21;;;;;;;1.08;1.00;;;12.00;75.50;;;;;;5024422;28;20046;-64
2023/01/05 02:25:18;;;;;;;0.90;0.80;;;12.00;76.10;;;;;;5025411;28;20033;-64
2023/01/05 02:28:27;;;;;;;1.02;0.70;;;12.00;76.20;;;;;;5026006;28;20034;-64
2023/01/05 02:31:12;;;;;;;0.90;0.90;;;12.00;76.30;;;;;;5023253;28;20092;-64
2023/01/05 02:33:56;;;;;;;0.70;0.70;;;12.00;76.30;;;;;;5016205;28;20033;-64
2023/01/05 02:36:52;;;;;;;0.70;0.70;;;12.00;75.90;;;;;;5011047;28;20053;-63
2023/01/05 02:39:23;;;;;;;1.30;0.70;;;12.00;76.10;;;;;;5032268;28;20032;-63
2023/01/05 02:41:55;;;;;;;0.73;0.73;;;12.00;75.90;;;;;;5018611;28;20073;-63
2023/01/05 02:44:21;;;;;;;1.05;0.70;;;12.00;76.90;;;;;;5028374;28;20030;-63
2023/01/05 02:46:57;;;;;;;0.70;0.70;;;12.00;76.10;;;;;;5025022;28;20033;-64
2023/01/05 02:49:23;;;;;;;2.58;0.70;;;11.90;76.10;;;;;;5043128;28;20403;-64
2023/01/05 02:51:54;;;;;;;2.15;0.80;;;12.00;76.50;;;;;;5035535;28;20055;-64
2023/01/05 02:54:46;;;;;;;1.00;0.90;;;12.00;76.40;;;;;;5045654;28;20037;-64
2023/01/05 02:57:19;;;;;;;0.75;0.75;;;12.00;77.20;;;;;;5043630;28;20050;-65
2023/01/05 02:59:52;;;;;;;1.25;0.80;;;12.00;76.40;;;;;;5041019;28;20064;-63
2023/01/05 03:02:26;;;;;;;0.80;0.80;;;12.00;76.30;;;;;;5043267;28;20025;-63
2023/01/05 03:05:03;;;;;;;0.90;0.88;;;12.00;77.10;;;;;;5047192;28;20025;-63
2023/01/05 03:07:33;;;;;;;0.88;0.80;;;12.10;76.60;;;;;;5047220;28;20516;-63
2023/01/05 03:13:39;;;;;;;0.63;0.63;;;12.10;76.40;;;;;;5040552;28;20029;-63
2023/01/05 03:15:35;;;;;;;1.30;0.75;;;12.10;76.50;;;;;;5043226;28;20040;-64
2023/01/05 03:18:08;;;;;;;0.95;0.80;;;12.10;76.70;;;;;;5039823;28;20017;-64
2023/01/05 03:20:36;;;;;;;0.60;0.60;;;12.10;76.70;;;;;;5037814;28;20033;-63
2023/01/05 03:37:41;;;;;;;0.70;0.65;;;12.20;76.40;;;;;;5040157;28;20047;-63
2023/01/05 03:40:13;;;;;;;0.60;0.60;;;12.20;76.90;;;;;;5050142;28;20021;-64
2023/01/05 03:42:41;;;;;;;0.60;0.60;;;12.20;76.70;;;;;;5042829;28;20547;-65
2023/01/05 03:45:08;;;;;;;0.60;0.60;;;12.20;76.50;;;;;;5040147;28;20025;-64
2023/01/05 03:47:34;;;;;;;1.17;0.70;;;12.20;76.60;;;;;;5045294;28;20040;-64
2023/01/05 03:50:00;;;;;;;1.20;0.70;;;12.20;76.70;;;;;;5052488;28;20045;-63
2023/01/05 03:52:25;;;;;;;0.60;0.60;;;12.30;76.70;;;;;;5045807;28;20045;-63
2023/01/05 03:54:51;;;;;;;0.90;0.90;;;12.30;76.60;;;;;;5053360;28;20052;-64
2023/01/05 03:57:16;;;;;;;0.60;0.60;;;12.30;76.50;;;;;;5045937;28;20124;-63
2023/01/05 03:59:42;;;;;;;0.60;0.60;;;12.30;76.60;;;;;;5045644;28;20055;-65
2023/01/05 04:02:08;;;;;;;1.52;0.95;;;12.30;76.70;;;;;;5047458;28;20044;-63
2023/01/05 04:04:33;;;;;;;1.42;0.95;;;12.30;76.40;;;;;;5043267;28;20136;-63
2023/01/05 04:06:59;;;;;;;1.30;0.75;;;12.40;76.70;;;;;;5034638;28;20496;-63
2023/01/05 04:09:24;;;;;;;0.70;0.70;;;12.30;76.60;;;;;;5045193;28;20060;-63
2023/01/05 04:11:50;;;;;;;0.60;0.60;;;12.40;76.50;;;;;;5045227;28;20443;-62
2023/01/05 04:14:16;;;;;;;0.60;0.60;;;12.40;76.40;;;;;;5051533;28;20051;-65
2023/01/05 04:16:41;;;;;;;0.60;0.60;;;12.40;76.60;;;;;;5042217;28;20112;-63
2023/01/05 04:19:07;;;;;;;0.60;0.60;;;12.40;76.50;;;;;;4988157;28;20032;-64
2023/01/05 04:21:32;;;;;;;4.00;0.70;;;12.50;76.40;;;;;;5041030;28;20029;-63
2023/01/05 04:23:58;;;;;;;0.75;0.70;;;12.50;76.30;;;;;;5040901;28;20098;-63
2023/01/05 04:26:24;;;;;;;0.60;0.60;;;12.50;76.20;;;;;;5037197;28;20029;-63
2023/01/05 04:28:49;;;;;;;0.65;0.65;;;12.50;76.20;;;;;;5039448;28;20037;-63
2023/01/05 04:31:15;;;;;;;0.68;0.68;;;12.50;76.10;;;;;;5044192;28;20032;-63
2023/01/05 04:33:44;;;;;;;0.73;0.70;;;12.60;76.20;;;;;;5044423;28;20029;-64
2023/01/05 04:36:09;;;;;;;0.60;0.60;;;12.60;76.10;;;;;;5041214;28;20030;-63
2023/01/05 04:38:35;;;;;;;1.35;0.70;;;12.60;76.00;;;;;;5039116;28;20030;-64
2023/01/05 04:41:01;;;;;;;0.70;0.70;;;12.60;75.90;;;;;;5035389;28;20511;-64
2023/01/05 04:43:27;;;;;;;0.60;0.60;;;12.60;75.90;;;;;;5046324;28;20021;-64
2023/01/05 04:45:52;;;;;;;2.05;0.70;;;12.60;76.00;;;;;;5043332;28;20026;-64
2023/01/05 04:48:18;;;;;;;0.68;0.65;;;12.60;75.90;;;;;;5036971;28;20034;-64
2023/01/05 04:50:43;;;;;;;0.70;0.70;;;12.60;75.90;;;;;;5044019;28;20042;-64
2023/01/05 04:53:09;;;;;;;0.60;0.60;;;12.60;75.90;;;;;;5041956;28;20105;-64
2023/01/05 04:55:35;;;;;;;1.02;0.60;;;12.60;76.00;;;;;;5042936;28;20437;-64
2023/01/05 04:58:01;;;;;;;0.65;0.60;;;12.60;76.00;;;;;;5044739;28;20033;-63
2023/01/05 05:00:29;;;;;;;0.60;0.60;;;12.60;76.10;;;;;;5038468;28;20056;-64
2023/01/05 05:02:55;;;;;;;0.60;0.60;;;12.70;76.00;;;;;;5036763;28;20493;-64
2023/01/05 05:05:20;;;;;;;1.13;0.70;;;12.60;76.10;;;;;;5047023;28;20052;-64
2023/01/05 05:07:46;;;;;;;0.73;0.70;;;12.70;76.20;;;;;;5046999;28;20061;-64
2023/01/05 05:10:11;;;;;;;1.85;0.60;;;12.60;76.30;;;;;;5054164;28;20033;-64
2023/01/05 05:12:37;;;;;;;0.70;0.60;;;12.60;76.20;;;;;;5045555;28;20033;-64
2023/01/05 05:15:03;;;;;;;0.50;0.50;;;12.60;76.20;;;;;;5051631;28;20086;-64
2023/01/05 05:17:29;;;;;;;0.60;0.60;;;12.60;76.80;;;;;;5046824;28;20034;-64
2023/01/05 05:19:54;;;;;;;0.60;0.60;;;12.60;76.10;;;;;;5050874;28;20040;-64
2023/01/05 05:22:20;;;;;;;0.75;0.50;;;12.60;76.30;;;;;;5046825;28;20024;-64
2023/01/05 05:24:46;;;;;;;0.50;0.50;;;12.60;76.20;;;;;;5045808;28;20017;-64
2023/01/05 05:27:12;;;;;;;0.77;0.77;;;12.60;76.30;;;;;;5046390;28;20021;-64
2023/01/05 05:29:37;;;;;;;0.80;0.80;;;12.60;76.40;;;;;;5051452;28;20407;-64
2023/01/05 05:32:03;;;;;;;0.95;0.60;;;12.60;76.30;;;;;;5039615;28;20040;-64
2023/01/05 05:34:29;;;;;;;1.27;0.70;;;12.60;76.30;;;;;;5046822;28;20026;-64
2023/01/05 05:36:54;;;;;;;0.70;0.70;;;12.60;76.40;;;;;;5048923;28;20029;-64
2023/01/05 05:39:20;;;;;;;0.70;0.70;;;12.60;76.30;;;;;;5049230;28;20514;-64
2023/01/05 05:41:46;;;;;;;0.50;0.50;;;12.60;76.30;;;;;;5046186;28;20036;-64
2023/01/05 05:44:11;;;;;;;0.50;0.50;;;12.60;76.30;;;;;;5047435;28;20030;-64
2023/01/05 05:46:37;;;;;;;0.77;0.60;;;12.60;76.30;;;;;;5049132;28;20076;-63
2023/01/05 05:49:03;;;;;;;0.70;0.70;;;12.60;76.50;;;;;;5043477;28;20033;-64
2023/01/05 05:51:29;;;;;;;0.70;0.70;;;12.60;76.50;;;;;;5051015;28;20057;-64
2023/01/05 05:53:54;;;;;;;1.00;1.00;;;12.60;76.50;;;;;;5042274;28;20056;-63
2023/01/05 05:56:20;;;;;;;0.70;0.70;;;12.60;76.50;;;;;;5043381;28;20049;-63
2023/01/05 05:58:46;;;;;;;0.80;0.80;;;12.60;76.50;;;;;;5046281;28;20166;-63
2023/01/05 06:01:12;;;;;;;0.90;0.90;;;12.60;76.50;;;;;;5043458;28;20021;-63
2023/01/05 06:03:38;;;;;;;1.05;0.70;;;12.60;76.50;;;;;;5038864;28;20196;-64
2023/01/05 06:06:04;;;;;;;0.60;0.60;;;12.60;76.50;;;;;;5044758;28;20579;-63
2023/01/05 06:08:30;;;;;;;0.70;0.70;;;12.60;76.40;;;;;;5030296;28;20037;-63
2023/01/05 06:10:56;;;;;;;0.70;0.70;;;12.60;76.30;;;;;;5049042;28;20037;-63
2023/01/05 06:13:22;;;;;;;1.73;0.88;;;12.70;76.40;;;;;;5043667;28;20097;-64
2023/01/05 06:15:48;;;;;;;0.60;0.60;;;12.60;76.40;;;;;;5048231;28;20112;-64
2023/01/05 06:18:14;;;;;;;0.63;0.63;;;12.60;76.30;;;;;;5048745;28;20025;-64
2023/01/05 06:20:40;;;;;;;0.70;0.70;;;12.70;76.30;;;;;;5048650;28;20134;-64
2023/01/05 06:23:06;;;;;;;0.70;0.70;;;12.70;76.30;;;;;;5041228;28;20080;-63
2023/01/05 06:25:32;;;;;;;0.93;0.63;;;12.70;76.30;;;;;;5044588;28;20471;-64
2023/01/05 06:27:58;;;;;;;0.70;0.70;;;12.70;76.30;;;;;;5047401;28;20055;-64
2023/01/05 06:30:25;;;;;;;0.73;0.73;;;12.70;76.20;;;;;;5050327;28;20037;-63
2023/01/05 06:32:50;;;;;;;0.70;0.70;;;12.70;76.20;;;;;;5035843;28;20057;-64
2023/01/05 06:35:16;;;;;;;0.52;0.52;;;12.70;76.10;;;;;;5042276;28;20029;-64
2023/01/05 06:37:42;;;;;;;1.02;0.70;;;12.70;76.00;;;;;;5049058;28;20075;-64
2023/01/05 06:40:10;;;;;;;0.73;0.70;;;12.80;76.10;;;;;;5038835;28;20057;-64
2023/01/05 06:42:36;;;;;;;1.13;0.70;;;12.80;76.00;;;;;;5045494;28;20113;-63
2023/01/05 06:45:05;;;;;;;0.85;0.80;;;12.80;76.00;;;;;;5043093;28;20017;-63
2023/01/05 06:47:30;;;;;;;0.70;0.70;;;12.80;76.10;;;;;;5048483;28;20029;-63
2023/01/05 06:49:56;;;;;;;0.70;0.70;;;12.80;76.10;;;;;;5045679;28;20040;-62
2023/01/05 06:52:22;;;;;;;2.50;1.02;;;12.80;76.30;;;;;;5033652;28;20073;-63
2023/01/05 06:54:47;;;;;;;1.05;0.98;;;12.80;76.30;;;;;;5052570;28;20029;-63
2023/01/05 06:57:13;;;;;;;1.20;0.90;;;12.80;76.20;;;;;;5059426;28;20028;-63
2023/01/05 06:59:39;;;;;;;3.03;1.05;;;12.70;76.00;;;;;;5040731;28;20407;-63
2023/01/05 07:02:11;;;;;;;1.38;1.00;;;12.70;75.80;;;;;;5042324;28;20033;-63
2023/01/05 07:04:36;;;;;;;0.75;0.73;;;12.70;75.70;;;;;;5049407;28;20029;-63
2023/01/05 07:07:02;;;;;;;1.52;0.90;;;12.70;75.60;;;;;;5043773;28;20058;-64
2023/01/05 07:09:28;;;;;;;1.08;0.98;;;12.60;75.50;;;;;;5039870;28;20045;-64
2023/01/05 07:11:53;;;;;;;1.02;0.88;;;12.60;75.50;;;;;;5046607;28;20032;-65
2023/01/05 07:14:19;;;;;;;2.13;1.00;;;12.60;75.40;;;;;;5041175;28;20035;-64
2023/01/05 07:16:45;;;;;;;4.47;1.20;;;12.50;75.30;;;;;;5042197;28;20037;-64
2023/01/05 07:19:10;;;;;;;3.30;1.35;;;12.50;76.00;;;;;;4969123;28;20022;-64
2023/01/05 07:21:36;;;;;;;2.10;1.00;;;12.50;75.40;;;;;;5043648;28;20055;-65
2023/01/05 07:24:02;;;;;;;1.45;0.80;;;12.40;75.50;;;;;;5042743;28;20025;-64
2023/01/05 07:26:28;;;;;;;2.53;1.15;;;12.40;75.50;;;;;;5048005;28;20155;-65
2023/01/05 07:28:53;;;;;;;2.15;1.20;;;12.40;75.50;;;;;;5048795;28;20024;-65
2023/01/05 07:31:19;;;;;;;3.50;1.38;;;12.30;75.70;;;;;;5046970;28;20091;-65
2023/01/05 07:33:45;;;;;;;1.58;0.90;;;12.30;75.70;;;;;;5039778;28;20060;-65
2023/01/05 07:36:12;;;;;;;2.22;1.02;;;12.30;75.80;;;;;;5038544;28;20048;-65
2023/01/05 07:38:37;;;;;;;1.60;0.80;;;12.20;75.80;;;;;;5050003;28;20053;-64
2023/01/05 07:41:03;;;;;;;3.90;1.20;;;12.20;75.70;;;;;;5050363;28;20465;-65
2023/01/05 07:43:29;;;;;;;1.80;0.80;;;12.20;75.80;;;;;;5048809;28;20033;-64
2023/01/05 07:45:58;;;;;;;4.25;0.90;;;12.20;75.90;;;;;;5053520;28;20033;-64
2023/01/05 07:48:24;;;;;;;2.35;0.98;;;12.20;75.90;;;;;;5039244;28;20060;-65
2023/01/05 07:50:51;;;;;;;4.18;1.20;;;12.20;75.70;;;;;;5047285;28;20037;-65
2023/01/05 07:53:16;;;;;;;2.88;0.82;;;12.10;75.50;;;;;;5043193;28;20056;-65
2023/01/05 07:55:43;;;;;;;3.58;1.35;;;12.20;75.70;;;;;;5035525;28;20050;-65
2023/01/05 07:58:09;;;;;;;3.60;1.10;;;12.10;75.60;;;;;;5040111;28;20036;-65
2023/01/05 08:00:34;;;;;;;3.58;1.20;;;12.10;75.60;;;;;;5034151;28;20103;-65
2023/01/05 08:03:00;;;;;;;2.88;0.85;;;12.10;75.60;;;;;;5036797;28;20029;-64
2023/01/05 08:05:29;;;;;;;5.15;1.45;;;12.10;75.60;;;;;;5042595;28;20033;-65
2023/01/05 08:07:55;;;;;;;2.47;0.90;;;12.00;75.40;;;;;;5040597;28;20093;-65
2023/01/05 08:10:29;;;;;;;4.03;1.00;;;12.00;75.50;;;;;;5049630;28;20048;-64
2023/01/05 08:15:46;;;;;;;4.50;1.30;;;12.00;75.50;;;;;;5041169;28;20091;-63
2023/01/05 08:18:12;;;;;;;3.30;0.95;;;12.00;75.70;;;;;;5035402;28;20050;-64
2023/01/05 08:20:37;;;;;;;3.70;1.10;;;12.00;75.70;;;;;;5046848;28;20080;-63
2023/01/05 08:23:03;;;;;;;2.05;1.10;;;11.90;75.60;;;;;;5044342;28;20100;-63
2023/01/05 08:25:29;;;;;;;7.22;1.30;;;12.00;75.60;;;;;;5043520;28;20033;-64
2023/01/05 08:27:54;;;;;;;4.72;1.50;;;12.00;75.70;;;;;;5045195;28;20021;-63
2023/01/05 08:30:20;;;;;;;3.92;1.50;;;12.00;75.60;;;;;;5045296;28;20041;-62
2023/01/05 08:32:46;;;;;;;4.05;2.20;;;12.00;75.70;;;;;;5030949;28;20057;-63
2023/01/05 08:35:11;;;;;;;4.45;1.70;;;12.00;75.70;;;;;;5043556;28;20037;-65
2023/01/05 08:37:38;;;;;;;2.55;1.40;;;12.00;75.70;;;;;;5050514;28;20025;-64
2023/01/05 08:40:04;;;;;;;4.05;1.27;;;12.00;75.70;;;;;;5043073;28;20029;-63
2023/01/05 08:42:30;;;;;;;5.38;1.60;;;12.00;75.80;;;;;;5045271;28;20030;-63
2023/01/05 08:44:55;;;;;;;5.72;1.52;;;12.00;75.90;;;;;;5048455;28;20049;-63
2023/01/05 08:47:21;;;;;;;5.35;1.05;;;12.00;75.80;;;;;;5048404;28;20053;-63
2023/01/05 08:49:48;;;;;;;6.35;1.55;;;12.10;75.90;;;;;;5046927;28;20037;-64
2023/01/05 08:52:14;;;;;;;4.95;1.35;;;12.10;75.60;;;;;;5042731;28;20091;-63
2023/01/05 08:54:40;;;;;;;2.22;0.93;;;12.10;75.60;;;;;;5046643;28;20513;-63
2023/01/05 08:57:05;;;;;;;2.47;0.90;;;12.10;75.60;;;;;;5039677;28;20159;-63
2023/01/05 08:59:31;;;;;;;3.83;1.45;;;12.10;75.80;;;;;;5045276;28;20032;-64
2023/01/05 09:01:56;;;;;;;3.63;1.02;;;12.20;75.80;;;;;;5044941;28;20063;-63
2023/01/05 09:04:23;;;;;;;2.03;1.15;;;12.20;75.50;;;;;;5047627;28;20076;-63
2023/01/05 09:06:49;;;;;;;3.35;0.90;;;12.20;75.20;;;;;;5050033;28;20029;-63
2023/01/05 09:09:15;;;;;;;6.20;2.45;;;12.30;75.10;;;;;;5040311;28;20120;-64
2023/01/05 09:11:41;;;;;;;4.03;2.00;;;12.30;75.00;;;;;;5043669;28;20438;-64
2023/01/05 09:14:06;;;;;;;2.80;1.30;;;12.30;75.00;;;;;;5060199;28;20021;-63
2023/01/05 09:16:34;;;;;;;55.35;24.27;;;12.30;75.00;;;;;;5041605;28;20078;-64
2023/01/05 09:19:01;;;;;;;14.63;7.50;;;12.40;74.90;;;;;;4981076;28;20017;-64
2023/01/05 09:21:28;;;;;;;8.98;4.43;;;12.40;74.80;;;;;;5037116;28;20036;-65
2023/01/05 09:23:53;;;;;;;5.30;1.85;;;12.40;74.70;;;;;;5039385;28;20021;-65
2023/01/05 09:26:19;;;;;;;5.85;2.70;;;12.40;74.70;;;;;;5052545;28;20075;-64
2023/01/05 09:28:44;;;;;;;3.42;1.38;;;12.40;74.70;;;;;;5039735;28;20091;-65
2023/01/05 09:31:13;;;;;;;5.63;1.33;;;12.40;74.80;;;;;;5049457;28;20041;-65
2023/01/05 09:33:39;;;;;;;4.68;1.55;;;12.50;74.60;;;;;;5047862;28;20041;-65
2023/01/05 09:36:06;;;;;;;4.18;1.10;;;12.50;74.50;;;;;;5047366;28;20033;-66
2023/01/05 09:38:32;;;;;;;3.45;1.27;;;12.50;74.50;;;;;;5048028;28;20037;-64
2023/01/05 09:41:13;;;;;;;3.70;1.05;;;12.50;74.50;;;;;;5044687;28;20026;-65
2023/01/05 09:43:40;;;;;;;3.10;1.10;;;12.50;74.30;;;;;;5049271;28;20063;-65
2023/01/05 09:46:12;;;;;;;4.35;1.30;;;12.50;74.30;;;;;;5055109;28;20055;-65
2023/01/05 09:48:41;;;;;;;6.15;1.40;;;12.50;74.30;;;;;;5043832;28;20021;-67
2023/01/05 09:51:08;;;;;;;5.20;1.25;;;12.50;74.20;;;;;;5044664;28;20056;-69
2023/01/05 09:53:33;;;;;;;5.63;1.10;;;12.50;74.20;;;;;;5054752;28;20059;-64
2023/01/05 09:56:00;;;;;;;5.80;3.50;;;12.50;74.20;;;;;;5052464;28;20029;-64
2023/01/05 09:58:32;;;;;;;4.40;1.40;;;12.50;74.20;;;;;;5058078;28;20037;-65
2023/01/05 10:01:11;;;;;;;2.88;1.27;;;12.50;74.10;;;;;;5052632;28;20060;-66
2023/01/05 10:03:42;;;;;;;3.78;1.30;;;12.50;74.00;;;;;;5046324;28;20052;-65
2023/01/05 10:06:14;;;;;;;7.00;3.15;;;12.50;73.90;;;;;;5052510;28;20040;-64
2023/01/05 10:08:43;;;;;;;4.90;1.92;;;12.60;73.80;;;;;;5056442;28;20024;-64
2023/01/05 10:14:35;;;;;;;8.53;3.50;;;12.60;73.90;;;;;;5020130;28;20064;-66
2023/01/05 10:17:01;;;;;;;8.35;2.38;;;12.70;73.80;;;;;;5027041;28;20272;-65
2023/01/05 10:19:28;;;;;;;4.78;1.65;;;12.70;73.60;;;;;;4964486;28;20037;-65
2023/01/05 10:22:22;;;;;;;6.18;2.83;;;12.70;73.60;;;;;;5007599;28;20022;-66
2023/01/05 10:25:00;;;;;;;7.70;2.10;;;12.80;73.70;;;;;;5025950;28;20033;-66
2023/01/05 10:27:34;;;;;;;7.45;1.73;;;12.80;72.80;;;;;;5026058;28;20072;-65
2023/01/05 10:30:06;;;;;;;9.77;3.60;;;12.80;73.00;;;;;;5030285;28;20052;-65
2023/01/05 10:32:40;;;;;;;10.82;2.40;;;12.80;72.50;;;;;;5028806;28;20072;-65
2023/01/05 10:35:30;;;;;;;8.15;1.90;;;12.90;72.40;;;;;;5025291;28;20056;-64
2023/01/05 10:38:33;;;;;;;8.95;1.85;;;12.90;70.40;;;;;;5028952;28;20118;-66
2023/01/05 10:41:23;;;;;;;9.73;2.25;;;12.90;71.40;;;;;;5021941;28;20413;-66
2023/01/05 10:44:26;;;;;;;14.30;2.72;;;12.90;71.20;;;;;;5028154;28;20037;-66
2023/01/05 10:46:52;;;;;;;9.27;1.98;;;12.80;71.10;;;;;;5033602;28;20049;-65
2023/01/05 10:49:24;;;;;;;12.15;2.58;;;12.90;71.60;;;;;;5031548;28;20045;-65
2023/01/05 10:51:50;;;;;;;10.95;2.17;;;12.90;71.40;;;;;;5033606;28;20057;-66
2023/01/05 10:54:27;;;;;;;10.75;1.90;;;12.90;71.50;;;;;;5041684;28;20036;-66
2023/01/05 10:56:53;;;;;;;10.35;2.40;;;12.90;71.20;;;;;;5041031;28;20033;-65
2023/01/05 10:59:18;;;;;;;10.25;2.50;;;12.90;71.30;;;;;;5042763;28;20101;-65
2023/01/05 11:01:48;;;;;;;11.05;2.58;;;12.90;70.90;;;;;;5043119;28;20068;-67
2023/01/05 11:04:22;;;;;;;12.23;2.45;;;12.90;70.60;;;;;;5039682;28;20025;-66
2023/01/05 11:06:48;;;;;;;15.70;2.70;;;12.90;70.40;;;;;;5048256;28;20100;-65
2023/01/05 11:09:17;;;;;;;8.77;2.30;;;12.90;70.70;;;;;;5041075;28;20068;-65
2023/01/05 11:11:51;;;;;;;11.43;2.55;;;12.90;70.50;;;;;;5053460;28;20108;-66
2023/01/05 11:14:16;;;;;;;11.88;2.35;;;12.90;70.20;;;;;;5040581;28;20153;-66
2023/01/05 11:16:52;;;;;;;13.93;2.47;;;12.90;70.20;;;;;;5050517;28;21150;-65
2023/01/05 11:19:24;;;;;;;7.68;1.90;;;12.90;68.90;;;;;;5037732;28;20033;-65
2023/01/05 11:21:50;;;;;;;10.32;2.60;;;12.90;70.00;;;;;;5036656;28;20046;-64
2023/01/05 11:24:31;;;;;;;16.98;2.70;;;12.90;69.50;;;;;;5047862;28;20032;-64
2023/01/05 11:27:04;;;;;;;14.65;2.20;;;13.00;69.00;;;;;;5043833;28;20028;-65
2023/01/05 11:29:30;;;;;;;8.18;2.30;;;12.90;69.60;;;;;;5045904;28;20037;-65
2023/01/05 11:32:04;;;;;;;8.95;2.00;;;12.90;69.50;;;;;;5043409;28;20100;-65
2023/01/05 11:34:41;;;;;;;11.70;2.22;;;13.00;68.60;;;;;;5044094;28;20040;-64
2023/01/05 11:37:24;;;;;;;11.77;1.98;;;13.00;68.70;;;;;;5043863;28;20029;-65
2023/01/05 11:39:55;;;;;;;13.73;2.58;;;13.00;68.60;;;;;;5047824;28;20279;-66
2023/01/05 11:42:23;;;;;;;14.88;2.70;;;13.00;68.70;;;;;;5043963;28;20076;-65
2023/01/05 11:45:00;;;;;;;9.93;2.25;;;13.00;68.60;;;;;;5042240;28;20048;-65
2023/01/05 11:47:30;;;;;;;9.63;1.95;;;13.00;68.80;;;;;;5041834;28;20028;-65
2023/01/05 11:50:04;;;;;;;11.82;2.50;;;13.00;68.60;;;;;;5046964;28;20056;-64
2023/01/05 11:52:42;;;;;;;11.38;2.95;;;13.00;68.40;;;;;;5047608;28;20045;-64
2023/01/05 11:55:23;;;;;;;11.07;2.38;;;13.10;68.30;;;;;;5048579;28;20105;-65
2023/01/05 11:57:51;;;;;;;7.35;1.92;;;13.10;67.50;;;;;;5043487;28;20021;-65
2023/01/05 12:00:33;;;;;;;10.88;2.55;;;13.10;67.90;;;;;;5050166;28;20441;-66
2023/01/05 12:03:24;;;;;;;12.82;2.75;;;13.10;68.00;;;;;;5038204;28;20101;-66
2023/01/05 12:05:53;;;;;;;13.07;1.95;;;13.10;67.20;;;;;;5040456;28;20069;-65
2023/01/05 12:08:57;;;;;;;8.00;2.40;;;13.20;68.00;;;;;;5026829;28;20028;-64
2023/01/05 12:11:26;;;;;;;7.68;1.85;;;13.20;67.20;;;;;;5025648;28;20049;-65
2023/01/05 12:14:23;;;;;;;7.15;1.77;;;13.20;68.20;;;;;;5047059;28;20017;-66
2023/01/05 12:16:56;;;;;;;11.02;2.67;;;13.30;67.90;;;;;;5046260;28;20055;-66
2023/01/05 12:19:31;;;;;;;10.83;2.63;;;13.30;67.20;;;;;;5046213;28;20155;-66
2023/01/05 12:22:12;;;;;;;7.03;2.22;;;13.30;68.30;;;;;;5035636;28;20038;-65
2023/01/05 12:24:51;;;;;;;15.13;2.15;;;13.30;67.60;;;;;;5042517;28;20037;-65
2023/01/05 12:27:58;;;;;;;15.90;2.67;;;13.30;67.90;;;;;;5043136;28;20018;-65
2023/01/05 12:30:27;;;;;;;8.48;2.08;;;13.40;67.70;;;;;;5044004;28;20041;-65
2023/01/05 12:33:03;;;;;;;7.97;2.22;;;13.40;68.30;;;;;;5037871;28;20077;-65
2023/01/05 12:35:53;;;;;;;11.90;2.45;;;13.50;67.80;;;;;;5024675;28;20044;-65
2023/01/05 12:38:21;;;;;;;10.13;2.00;;;13.60;67.40;;;;;;5024603;28;20033;-65
2023/01/05 12:41:10;;;;;;;13.07;2.40;;;13.60;67.70;;;;;;5046073;28;20063;-66
2023/01/05 12:44:13;;;;;;;9.35;2.03;;;13.60;67.10;;;;;;5045434;28;20035;-66
2023/01/05 12:47:10;;;;;;;13.85;3.70;;;13.70;66.90;;;;;;5037309;28;20121;-65
2023/01/05 12:49:46;;;;;;;9.82;3.80;;;13.70;66.60;;;;;;5038595;28;20061;-65
2023/01/05 12:52:21;;;;;;;11.30;2.88;;;13.70;66.80;;;;;;5040440;28;20046;-65
2023/01/05 12:55:03;;;;;;;7.93;2.63;;;13.70;66.90;;;;;;5032909;28;20025;-65
2023/01/05 12:57:44;;;;;;;9.75;2.13;;;13.80;66.50;;;;;;5029363;28;20531;-65
2023/01/05 13:00:13;;;;;;;12.75;2.83;;;13.80;66.40;;;;;;5045926;28;20029;-65
2023/01/05 13:03:17;;;;;;;10.80;2.72;;;13.80;65.30;;;;;;5044421;28;20044;-65
2023/01/05 13:06:01;;;;;;;11.68;2.65;;;13.80;65.50;;;;;;5037877;28;20088;-65
2023/01/05 13:08:39;;;;;;;6.73;2.03;;;13.80;66.40;;;;;;5046647;28;20075;-64
2023/01/05 13:11:44;;;;;;;11.55;2.63;;;13.80;65.80;;;;;;5047847;28;20299;-65
2023/01/05 13:14:18;;;;;;;12.77;2.50;;;13.80;65.40;;;;;;5023281;28;20257;-65
2023/01/05 13:16:49;;;;;;;12.47;2.13;;;13.80;65.60;;;;;;5020348;28;20062;-65
2023/01/05 13:19:27;;;;;;;8.02;1.95;;;13.70;65.10;;;;;;5038373;28;20029;-65
2023/01/05 13:21:54;;;;;;;15.20;2.80;;;13.60;65.20;;;;;;5033853;28;20080;-66
2023/01/05 13:24:26;;;;;;;9.75;3.00;;;13.60;65.70;;;;;;5038210;28;20041;-65
2023/01/05 13:26:53;;;;;;;9.43;2.13;;;13.50;65.30;;;;;;5043493;28;20025;-65
2023/01/05 13:29:29;;;;;;;9.32;2.35;;;13.50;65.30;;;;;;5040061;28;20041;-65
2023/01/05 13:32:21;;;;;;;8.98;2.65;;;13.40;65.40;;;;;;5042727;28;20029;-66
2023/01/05 13:34:47;;;;;;;8.82;2.17;;;13.40;65.30;;;;;;5042853;28;20041;-66
2023/01/05 13:37:24;;;;;;;8.93;2.10;;;13.40;65.80;;;;;;5034683;28;20037;-65